Time;durP1;ratioP1;P1;durP2;ratioP2;P2;SDS_P1;SDS_P2;PMS_P1;PMS_P2;Temp;Humidity;BMP_temperature;BMP_pressure;BME280_temperature;BME280_humidity;BME280_pressure;Samples;Min_cycle;Max_cycle;Signal;HPM_P1;HPM_P2
2022/12/14 00:01:40;;;;;;;36.53;24.30;;;4.70;93.60;;;;;;5064558;28;20237;-63
2022/12/14 00:04:10;;;;;;;41.27;25.63;;;4.70;93.60;;;;;;5060305;28;20204;-63
2022/12/14 00:06:37;;;;;;;38.67;24.47;;;4.70;93.70;;;;;;5061576;28;20197;-64
2022/12/14 00:09:04;;;;;;;36.30;24.23;;;4.70;93.70;;;;;;5062203;28;20230;-63
2022/12/14 00:11:33;;;;;;;39.30;24.40;;;4.70;93.70;;;;;;5059509;28;20213;-63
2022/12/14 00:14:02;;;;;;;39.50;24.33;;;4.70;93.80;;;;;;5060228;28;20198;-63
2022/12/14 00:16:31;;;;;;;38.07;24.77;;;4.70;93.80;;;;;;5045369;28;20237;-64
2022/12/14 00:19:00;;;;;;;38.00;24.37;;;4.70;93.80;;;;;;5052035;28;20540;-63
2022/12/14 00:21:28;;;;;;;37.97;24.40;;;4.70;93.90;;;;;;5063726;28;20206;-63
2022/12/14 00:23:56;;;;;;;36.87;25.00;;;4.70;93.80;;;;;;5067029;28;20209;-64
2022/12/14 00:26:25;;;;;;;37.47;24.37;;;4.70;93.90;;;;;;5064077;28;20227;-64
2022/12/14 00:28:53;;;;;;;39.93;25.37;;;4.70;93.90;;;;;;5065320;28;20213;-64
2022/12/14 00:31:22;;;;;;;37.47;25.60;;;4.70;93.90;;;;;;5068088;28;20201;-63
2022/12/14 00:33:49;;;;;;;46.77;26.70;;;4.60;93.90;;;;;;5061327;28;20200;-63
2022/12/14 00:36:17;;;;;;;38.70;26.50;;;4.60;94.00;;;;;;5060132;28;20193;-63
2022/12/14 00:38:44;;;;;;;42.33;26.17;;;4.70;94.00;;;;;;5062914;28;20205;-64
2022/12/14 00:41:11;;;;;;;42.80;25.50;;;4.70;94.00;;;;;;5067737;28;20212;-63
2022/12/14 00:43:39;;;;;;;39.00;24.97;;;4.70;94.00;;;;;;5067455;28;20201;-63
2022/12/14 00:46:06;;;;;;;44.77;26.40;;;4.70;94.10;;;;;;5049209;28;20523;-63
2022/12/14 00:48:33;;;;;;;41.17;24.90;;;4.70;94.10;;;;;;5065433;28;20741;-63
2022/12/14 00:51:01;;;;;;;41.07;25.37;;;4.70;94.10;;;;;;5072519;28;20283;-63
2022/12/14 00:53:29;;;;;;;41.70;26.23;;;4.70;94.10;;;;;;5049475;28;20206;-63
2022/12/14 00:55:56;;;;;;;41.80;24.70;;;4.70;94.10;;;;;;5061926;28;20197;-63
2022/12/14 00:58:23;;;;;;;40.13;26.07;;;4.70;94.20;;;;;;5062657;28;20549;-64
2022/12/14 01:01:11;;;;;;;39.63;25.90;;;4.70;94.20;;;;;;5053779;28;20243;-63
2022/12/14 01:03:38;;;;;;;42.60;25.70;;;4.70;94.20;;;;;;5063332;28;20200;-63
2022/12/14 01:06:13;;;;;;;41.30;24.33;;;4.70;94.20;;;;;;5066576;28;20217;-63
2022/12/14 01:08:40;;;;;;;41.80;24.43;;;4.70;94.30;;;;;;5066938;28;20244;-63
2022/12/14 01:11:08;;;;;;;46.40;28.27;;;4.70;94.30;;;;;;5052330;28;20254;-63
2022/12/14 01:13:36;;;;;;;41.03;25.97;;;4.70;94.30;;;;;;5051258;28;20198;-63
2022/12/14 01:16:09;;;;;;;42.93;26.10;;;4.70;94.30;;;;;;5063268;28;20190;-63
2022/12/14 01:18:38;;;;;;;42.77;25.77;;;4.70;94.30;;;;;;5052419;28;20205;-63
2022/12/14 01:21:18;;;;;;;39.73;24.60;;;4.70;94.30;;;;;;5053247;28;20210;-63
2022/12/14 01:23:46;;;;;;;43.93;26.20;;;4.70;94.30;;;;;;5061554;28;20643;-63
2022/12/14 01:26:15;;;;;;;41.20;25.37;;;4.70;94.30;;;;;;5060670;28;20215;-64
2022/12/14 01:28:43;;;;;;;38.67;24.13;;;4.80;94.40;;;;;;5063036;28;20221;-63
2022/12/14 01:31:19;;;;;;;39.50;25.73;;;4.70;94.40;;;;;;5061725;28;20254;-63
2022/12/14 01:33:47;;;;;;;41.83;25.20;;;4.80;94.40;;;;;;5069380;28;20211;-63
2022/12/14 01:36:21;;;;;;;42.80;26.83;;;4.80;94.40;;;;;;5067045;28;20193;-63
2022/12/14 01:38:53;;;;;;;37.27;24.03;;;4.80;94.40;;;;;;5050227;28;20217;-63
2022/12/14 01:41:23;;;;;;;39.17;25.73;;;4.70;94.40;;;;;;5065604;28;20240;-63
2022/12/14 01:44:19;;;;;;;40.17;25.83;;;4.80;94.40;;;;;;5063404;28;20293;-63
2022/12/14 01:46:49;;;;;;;42.33;26.13;;;4.80;94.40;;;;;;5014271;28;20558;-63
2022/12/14 01:49:42;;;;;;;38.13;24.83;;;4.70;94.40;;;;;;5063506;28;20660;-63
2022/12/14 01:52:42;;;;;;;39.87;25.87;;;4.70;94.40;;;;;;5065157;28;20202;-64
2022/12/14 01:55:16;;;;;;;34.10;24.77;;;4.80;94.40;;;;;;5063146;28;20655;-63
2022/12/14 01:58:07;;;;;;;38.77;25.47;;;4.80;94.40;;;;;;5064746;28;20215;-63
2022/12/14 02:00:35;;;;;;;41.50;24.77;;;4.80;94.50;;;;;;5065527;28;20654;-64
2022/12/14 02:03:11;;;;;;;38.73;26.53;;;4.70;94.40;;;;;;5061158;28;20714;-63
2022/12/14 02:05:43;;;;;;;41.77;25.30;;;4.80;94.50;;;;;;5061729;28;20189;-63
2022/12/14 02:08:11;;;;;;;44.80;26.27;;;4.70;94.50;;;;;;5063080;28;20213;-63
2022/12/14 02:10:39;;;;;;;41.00;26.13;;;4.80;94.50;;;;;;5062969;28;20215;-64
2022/12/14 02:13:13;;;;;;;41.63;26.00;;;4.80;94.50;;;;;;5062375;28;20216;-63
2022/12/14 02:15:41;;;;;;;41.37;25.20;;;4.70;94.50;;;;;;5065404;28;20232;-63
2022/12/14 02:18:13;;;;;;;39.13;24.67;;;4.80;94.50;;;;;;5063945;28;20197;-63
2022/12/14 02:21:10;;;;;;;41.97;25.43;;;4.70;94.50;;;;;;5064423;28;20292;-63
2022/12/14 02:24:06;;;;;;;44.20;26.50;;;4.80;94.60;;;;;;5066209;28;20232;-64
2022/12/14 02:27:10;;;;;;;41.93;26.03;;;4.70;94.50;;;;;;5064166;28;20204;-63
2022/12/14 02:29:49;;;;;;;40.40;24.73;;;4.70;94.50;;;;;;5030183;28;20688;-63
2022/12/14 02:32:56;;;;;;;43.60;25.07;;;4.70;94.50;;;;;;5063075;28;20263;-64
2022/12/14 02:35:45;;;;;;;43.20;25.73;;;4.70;94.50;;;;;;5061870;28;20231;-64
2022/12/14 02:38:33;;;;;;;46.07;27.03;;;4.70;94.50;;;;;;5062368;28;20212;-63
2022/12/14 02:41:09;;;;;;;38.00;24.33;;;4.70;94.60;;;;;;5067322;28;20272;-63
2022/12/14 02:44:02;;;;;;;39.33;25.03;;;4.70;94.60;;;;;;5066226;28;20209;-64
2022/12/14 02:46:35;;;;;;;37.57;23.90;;;4.70;94.60;;;;;;5062799;28;20203;-63
2022/12/14 02:49:29;;;;;;;41.03;23.90;;;4.70;94.50;;;;;;5067253;28;20251;-63
2022/12/14 02:52:23;;;;;;;41.47;25.20;;;4.70;94.60;;;;;;5062942;28;20202;-64
2022/12/14 02:55:05;;;;;;;36.60;24.10;;;4.70;94.60;;;;;;5055921;28;20197;-64
2022/12/14 02:57:41;;;;;;;40.63;25.93;;;4.70;94.50;;;;;;5065914;28;20202;-63
2022/12/14 03:00:09;;;;;;;36.63;23.67;;;4.70;94.50;;;;;;5024787;28;20714;-63
2022/12/14 03:02:42;;;;;;;41.20;25.87;;;4.70;94.60;;;;;;5064466;28;20193;-63
2022/12/14 03:05:10;;;;;;;38.50;23.80;;;4.70;94.60;;;;;;5062898;28;20193;-64
2022/12/14 03:07:59;;;;;;;37.63;24.57;;;4.70;94.60;;;;;;5060929;28;20240;-63
2022/12/14 03:10:45;;;;;;;38.53;24.83;;;4.70;94.60;;;;;;5066612;28;20189;-63
2022/12/14 03:13:21;;;;;;;42.97;25.97;;;4.70;94.60;;;;;;5060253;28;20208;-63
2022/12/14 03:16:10;;;;;;;42.00;25.43;;;4.70;94.60;;;;;;5034457;28;20223;-63
2022/12/14 03:18:44;;;;;;;36.77;23.80;;;4.70;94.70;;;;;;5051925;28;20625;-63
2022/12/14 03:21:17;;;;;;;44.37;25.70;;;4.70;94.60;;;;;;5064478;28;20203;-63
2022/12/14 03:23:48;;;;;;;38.97;24.37;;;4.70;94.60;;;;;;5045079;28;20209;-64
2022/12/14 03:26:26;;;;;;;39.43;25.83;;;4.70;94.60;;;;;;5047509;28;20284;-63
2022/12/14 03:29:05;;;;;;;39.37;24.30;;;4.70;94.60;;;;;;5064583;28;20216;-63
2022/12/14 03:31:50;;;;;;;38.47;22.30;;;4.70;94.60;;;;;;5062263;28;20206;-63
2022/12/14 03:34:23;;;;;;;36.30;23.00;;;4.70;94.60;;;;;;5063726;28;20192;-63
2022/12/14 03:37:11;;;;;;;34.60;22.93;;;4.70;94.60;;;;;;5058462;28;20200;-64
2022/12/14 03:39:41;;;;;;;39.23;24.47;;;4.70;94.60;;;;;;5050321;28;20219;-63
2022/12/14 03:42:34;;;;;;;35.03;22.40;;;4.60;94.50;;;;;;5061492;28;20537;-64
2022/12/14 03:45:29;;;;;;;35.80;23.27;;;4.70;94.60;;;;;;5066229;28;20223;-64
2022/12/14 03:48:25;;;;;;;37.53;23.10;;;4.60;94.50;;;;;;5061422;28;20220;-63
2022/12/14 03:50:59;;;;;;;36.40;22.03;;;4.70;94.50;;;;;;5065374;28;20226;-63
2022/12/14 03:53:55;;;;;;;34.93;23.53;;;4.70;94.50;;;;;;5059431;28;20195;-63
2022/12/14 03:56:41;;;;;;;34.43;22.40;;;4.70;94.50;;;;;;5062179;28;20216;-63
2022/12/14 03:59:14;;;;;;;33.37;22.60;;;4.60;94.40;;;;;;5069415;28;20217;-63
2022/12/14 04:02:05;;;;;;;37.73;22.83;;;4.60;94.40;;;;;;5063168;28;20714;-63
2022/12/14 04:04:35;;;;;;;34.57;23.17;;;4.60;94.40;;;;;;5063888;28;20567;-64
2022/12/14 04:07:51;;;;;;;33.73;22.60;;;4.60;94.40;;;;;;5063095;28;20215;-64
2022/12/14 04:19:51;;;;;;;40.13;22.87;;;4.60;94.20;;;;;;5067880;28;20291;-63
2022/12/14 04:22:22;;;;;;;34.87;22.23;;;4.60;94.20;;;;;;5073860;28;20207;-63
2022/12/14 04:28:05;;;;;;;35.40;21.83;;;4.60;94.50;;;;;;5065539;28;20204;-63
2022/12/14 04:30:37;;;;;;;40.80;22.00;;;4.60;94.20;;;;;;5067675;28;20282;-63
2022/12/14 04:35:57;;;;;;;39.67;24.50;;;4.60;94.20;;;;;;5058988;28;20198;-63
2022/12/14 04:38:36;;;;;;;32.60;22.40;;;4.70;94.20;;;;;;5065782;28;20198;-63
2022/12/14 04:41:07;;;;;;;35.03;22.07;;;4.60;94.10;;;;;;5062058;28;20209;-63
2022/12/14 04:43:42;;;;;;;34.53;22.17;;;4.70;94.20;;;;;;5066250;28;20239;-64
2022/12/14 04:46:17;;;;;;;38.47;22.33;;;4.60;94.20;;;;;;5062542;28;20702;-63
2022/12/14 04:48:54;;;;;;;35.77;21.00;;;4.70;94.20;;;;;;5067591;28;20258;-63
2022/12/14 04:51:46;;;;;;;32.63;21.17;;;4.60;94.10;;;;;;5065818;28;20537;-63
2022/12/14 04:54:23;;;;;;;33.50;20.70;;;4.70;94.10;;;;;;5061370;28;20208;-63
2022/12/14 04:57:15;;;;;;;34.00;20.17;;;4.60;94.10;;;;;;5062817;28;20260;-63
2022/12/14 04:59:46;;;;;;;32.63;19.87;;;4.60;94.20;;;;;;5063377;28;20237;-63
2022/12/14 05:02:32;;;;;;;32.30;19.73;;;4.70;94.20;;;;;;5065551;28;20279;-63
2022/12/14 05:05:11;;;;;;;33.97;21.40;;;4.70;94.20;;;;;;5063541;28;20632;-63
2022/12/14 05:08:05;;;;;;;33.83;19.97;;;4.70;94.10;;;;;;5064713;28;20207;-63
2022/12/14 05:10:40;;;;;;;37.70;22.37;;;4.70;94.10;;;;;;5068172;28;20207;-63
2022/12/14 05:13:19;;;;;;;31.17;20.20;;;4.60;94.10;;;;;;5062191;28;20208;-64
2022/12/14 05:15:50;;;;;;;29.97;19.40;;;4.70;94.10;;;;;;5059806;28;20202;-63
2022/12/14 05:18:17;;;;;;;33.67;21.03;;;4.70;94.10;;;;;;5062206;28;20189;-64
2022/12/14 05:20:45;;;;;;;30.23;20.40;;;4.70;94.10;;;;;;5066032;28;20306;-63
2022/12/14 05:23:12;;;;;;;32.00;21.07;;;4.70;94.10;;;;;;5061913;28;20220;-63
2022/12/14 05:25:40;;;;;;;31.93;20.77;;;4.70;94.10;;;;;;5065395;28;20215;-63
2022/12/14 05:28:08;;;;;;;29.70;18.47;;;4.70;94.10;;;;;;5060461;28;20198;-64
2022/12/14 05:30:35;;;;;;;28.70;20.60;;;4.70;94.10;;;;;;5065746;28;20288;-63
2022/12/14 05:33:02;;;;;;;30.90;20.07;;;4.70;94.00;;;;;;5067343;28;20206;-64
2022/12/14 05:35:29;;;;;;;34.40;20.87;;;4.70;94.00;;;;;;5063859;28;20528;-63
2022/12/14 05:37:56;;;;;;;36.30;22.53;;;4.70;93.90;;;;;;5065319;28;20278;-63
2022/12/14 05:40:23;;;;;;;31.97;20.40;;;4.70;93.90;;;;;;5068220;28;20209;-63
2022/12/14 05:42:50;;;;;;;29.87;20.73;;;4.70;93.90;;;;;;5062360;28;20211;-64
2022/12/14 05:45:21;;;;;;;36.53;20.57;;;4.70;93.90;;;;;;5060898;28;20202;-63
2022/12/14 05:47:48;;;;;;;35.40;21.87;;;4.70;93.90;;;;;;5052233;28;20198;-63
2022/12/14 05:50:15;;;;;;;38.97;22.17;;;4.70;93.90;;;;;;5062771;28;20222;-63
2022/12/14 05:52:43;;;;;;;27.63;19.77;;;4.70;93.90;;;;;;5065604;28;20650;-63
2022/12/14 05:55:10;;;;;;;35.03;21.63;;;4.70;93.90;;;;;;5065619;28;20196;-63
2022/12/14 05:57:37;;;;;;;33.73;21.30;;;4.70;93.90;;;;;;5066370;28;20201;-63
2022/12/14 06:00:04;;;;;;;38.77;22.97;;;4.70;93.90;;;;;;5065727;28;20233;-64
2022/12/14 06:02:31;;;;;;;40.93;22.50;;;4.70;93.90;;;;;;5060483;28;20215;-63
2022/12/14 06:04:58;;;;;;;35.10;21.67;;;4.70;93.90;;;;;;5063785;28;20571;-63
2022/12/14 06:07:25;;;;;;;35.93;22.67;;;4.70;93.80;;;;;;5061216;28;20209;-64
2022/12/14 06:09:54;;;;;;;31.20;20.97;;;4.70;93.80;;;;;;5062929;28;20672;-64
2022/12/14 06:12:21;;;;;;;29.13;18.97;;;4.70;93.80;;;;;;5062498;28;20193;-63
2022/12/14 06:14:48;;;;;;;32.70;19.50;;;4.70;93.70;;;;;;5062482;28;20197;-63
2022/12/14 06:17:15;;;;;;;28.63;20.13;;;4.70;93.80;;;;;;5063015;28;20651;-63
2022/12/14 06:19:42;;;;;;;32.47;20.33;;;4.70;93.70;;;;;;5063925;28;20202;-64
2022/12/14 06:22:15;;;;;;;32.60;20.73;;;4.70;93.70;;;;;;5062951;28;20283;-63
2022/12/14 06:24:42;;;;;;;31.60;21.10;;;4.70;93.70;;;;;;5061498;28;20222;-64
2022/12/14 06:27:10;;;;;;;30.27;20.37;;;4.70;93.70;;;;;;5062257;28;20565;-63
2022/12/14 06:29:37;;;;;;;29.13;20.00;;;4.70;93.70;;;;;;5063463;28;20308;-63
2022/12/14 06:32:04;;;;;;;35.47;19.60;;;4.70;93.60;;;;;;5060411;28;20201;-64
2022/12/14 06:34:31;;;;;;;26.33;17.67;;;4.70;93.60;;;;;;5063441;28;20631;-64
2022/12/14 06:37:05;;;;;;;29.13;19.00;;;4.70;93.60;;;;;;5030301;28;20233;-64
2022/12/14 06:39:32;;;;;;;27.57;19.03;;;4.70;93.60;;;;;;5064455;28;20606;-63
2022/12/14 06:41:59;;;;;;;29.43;19.07;;;4.70;93.50;;;;;;5066853;28;20201;-63
2022/12/14 06:44:26;;;;;;;26.17;18.30;;;4.70;93.50;;;;;;5063827;28;20217;-63
2022/12/14 06:46:54;;;;;;;27.47;18.93;;;4.70;93.50;;;;;;5065018;28;20247;-63
2022/12/14 06:49:21;;;;;;;28.63;19.17;;;4.70;93.40;;;;;;5066035;28;20225;-63
2022/12/14 06:51:49;;;;;;;30.03;18.97;;;4.60;93.40;;;;;;5062647;28;20206;-63
2022/12/14 06:54:16;;;;;;;28.17;19.03;;;4.70;93.40;;;;;;5058186;28;20193;-63
2022/12/14 06:56:46;;;;;;;27.40;19.27;;;4.70;93.40;;;;;;5059973;28;20207;-63
2022/12/14 06:59:13;;;;;;;28.90;18.70;;;4.70;93.40;;;;;;5064372;28;20411;-63
2022/12/14 07:01:41;;;;;;;26.23;18.20;;;4.70;93.40;;;;;;5063777;28;20574;-63
2022/12/14 07:04:09;;;;;;;27.03;17.00;;;4.70;93.40;;;;;;5061870;28;20199;-63
2022/12/14 07:06:40;;;;;;;28.47;18.73;;;4.70;93.30;;;;;;5059798;28;20204;-63
2022/12/14 07:09:10;;;;;;;27.00;18.43;;;4.70;93.30;;;;;;5063689;28;20220;-63
2022/12/14 07:11:38;;;;;;;26.43;17.40;;;4.70;93.30;;;;;;5059289;28;20647;-63
2022/12/14 07:14:06;;;;;;;30.27;18.47;;;4.80;93.30;;;;;;5062290;28;20263;-63
2022/12/14 07:16:35;;;;;;;25.80;17.57;;;4.80;93.30;;;;;;5060286;28;20227;-64
2022/12/14 07:19:03;;;;;;;26.57;17.03;;;4.80;93.30;;;;;;5062336;28;20208;-63
2022/12/14 07:21:32;;;;;;;23.97;17.27;;;4.80;93.30;;;;;;5065229;28;20248;-63
2022/12/14 07:24:00;;;;;;;27.87;17.40;;;4.80;93.30;;;;;;5061668;28;20209;-63
2022/12/14 07:26:27;;;;;;;24.80;16.33;;;4.80;93.20;;;;;;5065016;28;20568;-63
2022/12/14 07:28:56;;;;;;;27.67;16.63;;;4.80;93.20;;;;;;5063076;28;20247;-63
2022/12/14 07:31:26;;;;;;;26.27;16.10;;;4.80;93.10;;;;;;5057629;28;20216;-63
2022/12/14 07:33:55;;;;;;;24.37;15.93;;;4.90;93.10;;;;;;5065082;28;20197;-63
2022/12/14 07:36:23;;;;;;;25.87;17.93;;;4.90;93.10;;;;;;5062062;28;20222;-63
2022/12/14 07:38:51;;;;;;;24.37;16.90;;;4.90;93.10;;;;;;5063559;28;20532;-63
2022/12/14 07:41:21;;;;;;;25.20;17.30;;;4.90;93.00;;;;;;5060194;28;20201;-63
2022/12/14 07:43:50;;;;;;;27.73;17.77;;;4.90;92.90;;;;;;5057630;28;20212;-64
2022/12/14 07:46:23;;;;;;;26.97;17.67;;;4.90;92.80;;;;;;5048818;28;20228;-63
2022/12/14 07:48:53;;;;;;;24.60;16.70;;;4.90;92.80;;;;;;5065343;28;20205;-63
2022/12/14 07:51:24;;;;;;;25.63;18.17;;;4.90;92.80;;;;;;5064393;28;20645;-63
2022/12/14 07:53:51;;;;;;;24.50;16.67;;;4.90;92.80;;;;;;5061804;28;20573;-64
2022/12/14 07:56:21;;;;;;;23.93;16.30;;;4.90;92.80;;;;;;5062878;28;20206;-64
2022/12/14 07:58:48;;;;;;;25.40;17.33;;;4.90;92.80;;;;;;5062412;28;20208;-63
2022/12/14 08:01:27;;;;;;;26.80;17.33;;;5.00;92.80;;;;;;5060275;28;20266;-63
2022/12/14 08:04:04;;;;;;;23.50;16.57;;;5.00;92.80;;;;;;5063470;28;20223;-63
2022/12/14 08:06:33;;;;;;;24.23;16.57;;;5.00;92.70;;;;;;5061865;28;20254;-63
2022/12/14 08:09:00;;;;;;;23.33;15.97;;;5.00;92.70;;;;;;5059426;28;20276;-64
2022/12/14 08:11:28;;;;;;;27.27;16.93;;;5.00;92.70;;;;;;5062972;28;20207;-63
2022/12/14 08:13:56;;;;;;;23.77;17.13;;;5.00;92.70;;;;;;5064796;28;20200;-64
2022/12/14 08:16:24;;;;;;;27.20;16.23;;;5.00;92.60;;;;;;5059925;28;20200;-64
2022/12/14 08:18:53;;;;;;;21.80;15.87;;;5.00;92.60;;;;;;5066124;28;20211;-64
2022/12/14 08:21:21;;;;;;;21.80;15.73;;;5.10;92.50;;;;;;5064367;28;20197;-63
2022/12/14 08:23:49;;;;;;;24.03;16.37;;;5.10;92.50;;;;;;5059094;28;20703;-64
2022/12/14 08:26:17;;;;;;;24.70;17.10;;;5.00;92.40;;;;;;5058949;28;20213;-63
2022/12/14 08:28:44;;;;;;;25.07;16.43;;;5.00;92.40;;;;;;5062460;28;20201;-63
2022/12/14 08:31:15;;;;;;;23.13;15.20;;;5.00;92.40;;;;;;5062430;28;20209;-63
2022/12/14 08:33:43;;;;;;;26.90;15.53;;;5.00;92.30;;;;;;5060010;28;20202;-63
2022/12/14 08:36:16;;;;;;;25.17;16.27;;;5.00;92.20;;;;;;5046440;28;20215;-63
2022/12/14 08:38:44;;;;;;;25.30;15.27;;;5.10;92.20;;;;;;5067387;28;20193;-63
2022/12/14 08:41:12;;;;;;;21.50;14.70;;;5.10;91.90;;;;;;5066225;28;20212;-63
2022/12/14 08:43:40;;;;;;;25.70;15.77;;;5.00;91.50;;;;;;5061410;28;20209;-64
2022/12/14 08:46:09;;;;;;;19.80;14.40;;;5.00;91.40;;;;;;5063747;28;20565;-64
2022/12/14 08:48:37;;;;;;;23.00;15.30;;;5.00;91.50;;;;;;5064897;28;20208;-64
2022/12/14 08:51:06;;;;;;;21.27;14.63;;;5.00;91.50;;;;;;5065386;28;20228;-64
2022/12/14 08:53:35;;;;;;;21.47;15.27;;;5.00;91.60;;;;;;5060908;28;20195;-64
2022/12/14 08:56:10;;;;;;;24.77;15.43;;;5.00;91.60;;;;;;5067744;28;20200;-64
2022/12/14 08:58:38;;;;;;;21.80;14.93;;;5.00;91.30;;;;;;5064906;28;20190;-64
2022/12/14 09:01:10;;;;;;;22.63;15.90;;;5.00;91.30;;;;;;5069820;28;20686;-64
2022/12/14 09:03:39;;;;;;;21.70;14.73;;;5.00;91.10;;;;;;5067041;28;20275;-64
2022/12/14 09:06:09;;;;;;;23.53;16.07;;;5.00;91.00;;;;;;5065003;28;20204;-64
2022/12/14 09:08:36;;;;;;;21.60;14.30;;;5.00;91.10;;;;;;5066393;28;20242;-64
2022/12/14 09:11:05;;;;;;;23.37;15.20;;;5.00;91.20;;;;;;5065574;28;20225;-64
2022/12/14 09:13:32;;;;;;;29.57;14.53;;;5.00;91.10;;;;;;5058250;28;20561;-64
2022/12/14 09:16:06;;;;;;;21.67;15.77;;;5.00;91.00;;;;;;5047695;28;20210;-64
2022/12/14 09:18:34;;;;;;;20.70;14.13;;;5.00;90.80;;;;;;5060880;28;20193;-64
2022/12/14 09:21:01;;;;;;;22.97;14.83;;;5.00;90.80;;;;;;5066102;28;20209;-64
2022/12/14 09:23:30;;;;;;;22.17;15.20;;;5.00;90.90;;;;;;5069771;28;20220;-63
2022/12/14 09:26:12;;;;;;;23.57;15.10;;;5.00;90.90;;;;;;5062818;28;20206;-64
2022/12/14 09:28:41;;;;;;;23.33;14.20;;;5.00;90.80;;;;;;5064520;28;20223;-64
2022/12/14 09:31:14;;;;;;;22.50;14.63;;;5.00;90.90;;;;;;5066556;28;20221;-64
2022/12/14 09:33:41;;;;;;;23.20;15.13;;;5.00;90.90;;;;;;5063771;28;20717;-64
2022/12/14 09:36:13;;;;;;;25.47;16.10;;;5.00;90.80;;;;;;5062285;28;20206;-64
2022/12/14 09:38:41;;;;;;;20.47;14.40;;;5.00;90.90;;;;;;5065386;28;20200;-64
2022/12/14 09:41:34;;;;;;;26.47;14.93;;;5.00;90.90;;;;;;5066401;28;20209;-64
2022/12/14 09:44:23;;;;;;;24.60;14.63;;;5.00;91.00;;;;;;5060457;28;20271;-64
2022/12/14 09:47:12;;;;;;;21.50;14.53;;;5.00;90.80;;;;;;5060437;28;20201;-64
2022/12/14 09:49:50;;;;;;;23.83;15.37;;;5.00;90.60;;;;;;5062236;28;20216;-64
2022/12/14 09:52:33;;;;;;;22.00;15.53;;;5.00;90.70;;;;;;5047128;28;20204;-64
2022/12/14 09:55:04;;;;;;;27.67;16.10;;;5.00;90.90;;;;;;5061773;28;20231;-64
2022/12/14 09:57:38;;;;;;;24.77;15.63;;;5.00;90.90;;;;;;5062352;28;20208;-64
2022/12/14 10:00:19;;;;;;;27.33;15.00;;;5.00;91.00;;;;;;5066656;28;20248;-64
2022/12/14 10:02:58;;;;;;;23.33;15.07;;;5.10;91.20;;;;;;5062823;28;20657;-64
2022/12/14 10:06:16;;;;;;;24.87;17.27;;;5.10;91.10;;;;;;5059127;28;20289;-64
2022/12/14 10:08:57;;;;;;;28.40;16.67;;;5.10;91.10;;;;;;5031715;28;20216;-64
2022/12/14 10:11:39;;;;;;;27.60;17.47;;;5.00;91.20;;;;;;5065337;28;20209;-64
2022/12/14 10:14:39;;;;;;;31.47;18.47;;;5.00;91.30;;;;;;5065632;28;20214;-64
2022/12/14 10:17:10;;;;;;;27.33;18.93;;;5.00;91.40;;;;;;5063794;28;20484;-64
2022/12/14 10:19:54;;;;;;;28.23;18.10;;;5.00;91.50;;;;;;5069178;28;20621;-64
2022/12/14 10:22:36;;;;;;;28.60;19.00;;;5.00;91.50;;;;;;5064081;28;20198;-64
2022/12/14 10:25:11;;;;;;;30.33;19.10;;;5.10;91.60;;;;;;5066641;28;20212;-64
2022/12/14 10:27:40;;;;;;;30.67;19.20;;;5.20;91.70;;;;;;5061716;28;20204;-64
2022/12/14 10:30:28;;;;;;;34.10;20.10;;;5.20;91.90;;;;;;5066538;28;20578;-64
2022/12/14 10:33:12;;;;;;;29.20;18.13;;;5.20;91.50;;;;;;5061819;28;20193;-64
2022/12/14 10:35:50;;;;;;;29.97;18.77;;;5.20;91.50;;;;;;5061941;28;20193;-64
2022/12/14 10:38:26;;;;;;;30.00;18.43;;;5.30;91.60;;;;;;5064997;28;20224;-64
2022/12/14 10:41:01;;;;;;;32.27;18.93;;;5.30;91.60;;;;;;5060527;28;20240;-64
2022/12/14 10:43:48;;;;;;;27.47;18.37;;;5.30;91.60;;;;;;5064217;28;20293;-64
2022/12/14 10:46:47;;;;;;;28.00;18.30;;;5.30;91.60;;;;;;5063138;28;20597;-64
2022/12/14 10:49:23;;;;;;;31.97;19.60;;;5.40;91.70;;;;;;5065647;28;20301;-64
2022/12/14 10:52:01;;;;;;;29.30;19.73;;;5.40;92.00;;;;;;5062400;28;20212;-64
2022/12/14 10:54:42;;;;;;;33.20;19.67;;;5.50;91.70;;;;;;5058638;28;20197;-64
2022/12/14 10:57:19;;;;;;;34.27;18.97;;;5.50;91.60;;;;;;5063011;28;20642;-64
2022/12/14 10:59:46;;;;;;;29.93;18.80;;;5.50;91.60;;;;;;5062535;28;20325;-63
2022/12/14 11:02:38;;;;;;;28.20;18.87;;;5.50;91.60;;;;;;5063868;28;20220;-63
2022/12/14 11:05:27;;;;;;;31.23;20.67;;;5.60;91.60;;;;;;5061469;28;20225;-63
2022/12/14 11:08:05;;;;;;;27.67;18.87;;;5.60;91.60;;;;;;5062749;28;20201;-64
2022/12/14 11:10:38;;;;;;;32.10;19.30;;;5.70;91.70;;;;;;5062087;28;20229;-64
2022/12/14 11:13:05;;;;;;;29.77;19.63;;;5.70;91.70;;;;;;5059086;28;20209;-63
2022/12/14 11:15:36;;;;;;;34.63;20.53;;;5.70;91.80;;;;;;5057320;28;20213;-63
2022/12/14 11:18:29;;;;;;;31.37;18.93;;;5.80;91.80;;;;;;5060413;28;20285;-63
2022/12/14 11:21:03;;;;;;;30.33;19.93;;;5.80;91.90;;;;;;5055801;28;20221;-63
2022/12/14 11:23:40;;;;;;;29.50;19.43;;;5.80;91.90;;;;;;5047588;28;20243;-63
2022/12/14 11:26:46;;;;;;;31.77;20.57;;;5.90;91.90;;;;;;5063001;28;20580;-63
2022/12/14 11:29:20;;;;;;;31.20;19.70;;;5.90;92.00;;;;;;4999163;28;20223;-63
2022/12/14 11:31:51;;;;;;;29.27;19.00;;;6.00;92.00;;;;;;5003502;28;20245;-64
2022/12/14 11:34:37;;;;;;;33.17;19.30;;;6.00;91.90;;;;;;5037524;28;20210;-63
2022/12/14 11:37:25;;;;;;;27.90;19.20;;;6.10;91.90;;;;;;5060275;28;20198;-64
2022/12/14 11:39:58;;;;;;;31.50;20.70;;;6.10;91.90;;;;;;5061910;28;20266;-64
2022/12/14 11:42:26;;;;;;;32.63;20.73;;;6.10;91.80;;;;;;5060542;28;20535;-63
2022/12/14 11:44:54;;;;;;;32.53;21.57;;;6.10;91.70;;;;;;5059592;28;20189;-63
2022/12/14 11:47:25;;;;;;;34.87;21.07;;;6.20;91.70;;;;;;5052422;28;20521;-64
2022/12/14 11:49:59;;;;;;;35.90;22.47;;;6.20;91.60;;;;;;5062090;28;20194;-63
2022/12/14 11:52:40;;;;;;;30.57;20.70;;;6.30;91.60;;;;;;5062622;28;20208;-64
2022/12/14 11:55:14;;;;;;;32.60;20.93;;;6.30;91.60;;;;;;5059622;28;20193;-64
2022/12/14 11:57:53;;;;;;;33.53;21.67;;;6.40;91.60;;;;;;5062947;28;20212;-63
2022/12/14 12:00:36;;;;;;;32.13;20.07;;;6.40;91.60;;;;;;5060754;28;20303;-64
2022/12/14 12:03:30;;;;;;;28.90;20.10;;;6.40;91.50;;;;;;5047340;28;20260;-63
2022/12/14 12:06:09;;;;;;;32.20;20.63;;;6.40;91.40;;;;;;5060966;28;20280;-63
2022/12/14 12:08:39;;;;;;;30.10;19.77;;;6.40;91.30;;;;;;5046725;28;20195;-64
2022/12/14 12:11:22;;;;;;;33.37;19.93;;;6.40;91.20;;;;;;5063670;28;20202;-63
2022/12/14 12:14:06;;;;;;;32.63;19.73;;;6.40;91.20;;;;;;5062991;28;20194;-63
2022/12/14 12:16:34;;;;;;;31.13;19.70;;;6.50;91.20;;;;;;5062617;28;20201;-63
2022/12/14 12:19:07;;;;;;;30.40;19.30;;;6.50;91.10;;;;;;5064275;28;20213;-64
2022/12/14 12:21:43;;;;;;;35.57;20.40;;;6.50;91.10;;;;;;5066871;28;20517;-63
2022/12/14 12:24:29;;;;;;;32.47;20.07;;;6.50;91.10;;;;;;5061396;28;20619;-63
2022/12/14 12:26:59;;;;;;;32.77;20.20;;;6.50;91.00;;;;;;5063819;28;20228;-63
2022/12/14 12:29:33;;;;;;;31.37;20.47;;;6.50;91.00;;;;;;5064556;28;20208;-63
2022/12/14 12:32:13;;;;;;;31.37;20.47;;;6.50;91.00;;;;;;5066494;28;20205;-63
2022/12/14 12:34:56;;;;;;;30.23;19.90;;;6.50;91.00;;;;;;5064077;28;20628;-63
2022/12/14 12:37:41;;;;;;;31.27;21.03;;;6.50;91.00;;;;;;5069223;28;20266;-63
2022/12/14 12:40:19;;;;;;;36.80;20.40;;;6.50;91.00;;;;;;5070656;28;20189;-63
2022/12/14 12:43:08;;;;;;;32.43;19.20;;;6.60;91.00;;;;;;5060842;28;20632;-63
2022/12/14 12:45:43;;;;;;;35.40;20.60;;;6.60;90.90;;;;;;5062157;28;20644;-63
2022/12/14 12:48:44;;;;;;;30.93;19.10;;;6.60;90.90;;;;;;5062152;28;20220;-64
2022/12/14 12:51:28;;;;;;;32.70;20.27;;;6.70;90.90;;;;;;5063887;28;20218;-64
2022/12/14 12:54:11;;;;;;;30.70;19.77;;;6.80;90.80;;;;;;5064675;28;20260;-63
2022/12/14 12:56:42;;;;;;;30.60;19.70;;;6.80;90.60;;;;;;5068248;28;20193;-63
2022/12/14 12:59:39;;;;;;;29.83;19.67;;;6.80;90.50;;;;;;5067872;28;20692;-63
2022/12/14 13:02:27;;;;;;;32.70;19.80;;;6.80;90.50;;;;;;5051802;28;20198;-64
2022/12/14 13:04:57;;;;;;;35.00;20.53;;;6.90;90.50;;;;;;5064505;28;20202;-63
2022/12/14 13:07:50;;;;;;;36.33;18.97;;;6.90;90.40;;;;;;5065940;28;20194;-63
2022/12/14 13:10:25;;;;;;;35.43;20.20;;;6.90;90.30;;;;;;5064523;28;20194;-64
2022/12/14 13:13:00;;;;;;;30.57;20.40;;;6.90;90.20;;;;;;5061201;28;20190;-63
2022/12/14 13:15:35;;;;;;;37.70;21.47;;;6.90;90.10;;;;;;5064738;28;20202;-63
2022/12/14 13:18:17;;;;;;;28.63;20.07;;;6.80;90.10;;;;;;5065189;28;20632;-63
2022/12/14 13:21:26;;;;;;;37.83;19.37;;;6.80;90.10;;;;;;5070589;28;20292;-63
2022/12/14 13:23:53;;;;;;;28.23;18.60;;;6.80;90.10;;;;;;5065783;28;20214;-63
2022/12/14 13:26:47;;;;;;;29.20;18.37;;;6.90;90.00;;;;;;5065695;28;20202;-63
2022/12/14 13:29:35;;;;;;;33.40;18.80;;;6.80;90.10;;;;;;5066183;28;20198;-63
2022/12/14 13:32:15;;;;;;;35.73;19.80;;;6.80;90.10;;;;;;5060755;28;20241;-63